Time;durP1;ratioP1;P1;durP2;ratioP2;P2;SDS_P1;SDS_P2;PMS_P1;PMS_P2;Temp;Humidity;BMP_temperature;BMP_pressure;BME280_temperature;BME280_humidity;BME280_pressure;Samples;Min_cycle;Max_cycle;Signal;HPM_P1;HPM_P2
2023/10/05 00:00:40;;;;;;;4.18;0.63;;;;;;;-146.25;100.00;52335.75;2121821;27;35736;-65
2023/10/05 00:01:46;;;;;;;9.23;0.90;;;;;;;-146.25;100.00;52356.03;2123140;27;20043;-64
2023/10/05 00:02:48;;;;;;;6.47;1.30;;;;;;;-146.25;100.00;52376.31;2122216;27;36636;-64
2023/10/05 00:03:52;;;;;;;6.75;0.85;;;;;;;-146.25;100.00;52351.97;2112985;28;34502;-64
2023/10/05 00:04:54;;;;;;;6.70;1.00;;;;;;;-146.25;100.00;52343.88;2113129;27;34009;-64
2023/10/05 00:06:04;;;;;;;7.22;0.80;;;;;;;-146.25;100.00;52368.19;2112911;28;32019;-64
2023/10/05 00:07:11;;;;;;;10.93;1.25;;;;;;;-146.25;100.00;52358.06;2114805;27;20044;-64
2023/10/05 00:08:16;;;;;;;6.95;0.80;;;;;;;-146.25;100.00;52345.91;2113055;28;34181;-64
2023/10/05 00:09:18;;;;;;;10.65;1.13;;;;;;;-146.25;100.00;52335.75;2113999;27;33566;-64
2023/10/05 00:10:19;;;;;;;7.68;1.17;;;;;;;-146.25;100.00;52356.03;2121979;27;35919;-64
2023/10/05 00:11:24;;;;;;;4.43;0.60;;;;;;;-146.25;100.00;52372.25;2122171;27;22156;-64
2023/10/05 00:12:30;;;;;;;8.52;1.08;;;;;;;-146.25;100.00;52349.94;2122636;27;20047;-64
2023/10/05 00:13:34;;;;;;;4.03;0.63;;;;;;;-146.25;100.00;52364.13;2112906;28;27369;-64
2023/10/05 00:14:36;;;;;;;7.22;1.10;;;;;;;-146.25;100.00;52347.91;2113656;27;35725;-64
2023/10/05 00:15:38;;;;;;;6.25;0.80;;;;;;;-146.25;100.00;52368.19;2122851;27;32204;-64
2023/10/05 00:16:44;;;;;;;8.68;1.10;;;;;;;-146.25;100.00;52358.06;2122247;27;31746;-64
2023/10/05 00:17:47;;;;;;;8.75;1.00;;;;;;;-146.25;100.00;52376.31;2112964;27;33777;-63
2023/10/05 00:18:51;;;;;;;7.13;1.17;;;;;;;-146.25;100.00;52339.81;2113237;27;32872;-64
2023/10/05 00:19:56;;;;;;;6.78;0.93;;;;;;;-146.25;100.00;52356.03;2122013;27;33581;-63
2023/10/05 00:21:00;;;;;;;8.10;1.30;;;;;;;-146.25;100.00;52333.72;2122186;27;29455;-64
2023/10/05 00:22:02;;;;;;;7.28;0.98;;;;;;;-146.25;100.00;52360.09;2121783;27;36570;-63
2023/10/05 00:23:08;;;;;;;9.45;1.10;;;;;;;-146.25;100.00;52374.28;2121752;27;33581;-64
2023/10/05 00:24:11;;;;;;;7.80;1.10;;;;;;;-146.25;100.00;52356.03;2112971;28;30774;-64
2023/10/05 00:25:14;;;;;;;6.93;0.77;;;;;;;-146.25;100.00;52356.03;2113755;27;35626;-64
2023/10/05 00:26:20;;;;;;;5.45;0.98;;;;;;;-146.25;100.00;52343.88;2121458;27;33371;-64
2023/10/05 00:27:25;;;;;;;6.65;0.93;;;;;;;-146.25;100.00;52343.88;2122740;27;20043;-64
2023/10/05 00:28:29;;;;;;;8.00;0.80;;;;;;;-146.25;100.00;52315.47;2121888;27;20027;-64
2023/10/05 00:29:40;;;;;;;6.82;0.90;;;;;;;-146.25;100.00;52343.88;2121031;27;29740;-63
2023/10/05 00:30:42;;;;;;;6.97;1.10;;;;;;;-146.25;100.00;52354.00;2122223;27;31585;-63
2023/10/05 00:31:45;;;;;;;8.68;0.85;;;;;;;-146.25;100.00;52372.25;2122309;27;22288;-64
2023/10/05 00:32:52;;;;;;;6.78;1.17;;;;;;;-146.25;100.00;52358.06;2122992;27;20894;-64
2023/10/05 00:33:56;;;;;;;6.30;0.80;;;;;;;-146.25;100.00;52356.03;2122174;27;27322;-64
2023/10/05 00:35:14;;;;;;;8.45;0.95;;;;;;;-146.25;100.00;52360.09;2122402;27;27870;-63
2023/10/05 00:36:17;;;;;;;6.80;0.80;;;;;;;-146.25;100.00;52349.94;2112542;28;23053;-64
2023/10/05 00:37:19;;;;;;;6.40;0.90;;;;;;;-146.25;100.00;52347.91;2113301;28;20738;-64
2023/10/05 00:38:23;;;;;;;10.40;1.20;;;;;;;-146.25;100.00;52366.16;2112490;27;27420;-64
2023/10/05 00:39:29;;;;;;;7.00;0.93;;;;;;;-146.25;100.00;52349.94;2121961;27;26235;-63
2023/10/05 00:40:36;;;;;;;9.55;0.85;;;;;;;-146.25;100.00;52366.16;2121761;27;26590;-64
2023/10/05 00:41:37;;;;;;;5.97;0.88;;;;;;;-146.25;100.00;52335.75;2123048;27;21885;-63
2023/10/05 00:42:39;;;;;;;6.88;1.10;;;;;;;-146.25;100.00;52366.16;2122051;27;28902;-64
2023/10/05 00:43:46;;;;;;;7.75;1.05;;;;;;;-146.25;100.00;52380.38;2121812;27;31768;-63
2023/10/05 00:44:47;;;;;;;6.70;0.68;;;;;;;-146.25;100.00;52347.91;2122630;27;20134;-63
2023/10/05 00:45:51;;;;;;;5.95;0.90;;;;;;;-146.25;100.00;52368.19;2122043;27;28963;-64
2023/10/05 00:46:53;;;;;;;9.00;0.80;;;;;;;-146.25;100.00;52354.00;2113098;28;20890;-64
2023/10/05 00:48:01;;;;;;;9.95;1.08;;;;;;;-146.25;100.00;52364.13;2112571;27;29196;-63
2023/10/05 00:49:12;;;;;;;7.82;1.02;;;;;;;-146.25;100.00;52331.69;2121361;27;32064;-64
2023/10/05 00:50:14;;;;;;;4.65;0.75;;;;;;;-146.25;100.00;52386.44;2119802;27;26804;-64
2023/10/05 00:51:23;;;;;;;5.50;1.00;;;;;;;-146.25;100.00;52317.50;2104375;28;22558;-63
2023/10/05 00:52:29;;;;;;;9.13;0.90;;;;;;;-146.25;100.00;52366.16;2096830;28;34279;-65
2023/10/05 00:53:34;;;;;;;13.27;1.15;;;;;;;-146.25;100.00;52382.38;2097581;28;20037;-63
2023/10/05 00:54:40;;;;;;;7.53;0.80;;;;;;;-146.25;100.00;52376.31;2113628;27;31077;-63
2023/10/05 00:55:45;;;;;;;7.03;0.75;;;;;;;-146.25;100.00;52368.19;2112817;28;24413;-65
2023/10/05 00:56:47;;;;;;;8.48;1.13;;;;;;;-146.25;100.00;52376.31;2105070;28;24806;-64
2023/10/05 00:57:49;;;;;;;7.28;1.10;;;;;;;-146.25;100.00;52398.59;2113634;27;36716;-64
2023/10/05 00:58:55;;;;;;;5.78;1.13;;;;;;;-146.25;100.00;52368.19;2121328;27;30855;-64
2023/10/05 01:01:08;;;;;;;9.35;1.13;;;;;;;-146.25;100.00;52368.19;2113911;27;31133;-64
2023/10/05 01:02:16;;;;;;;7.38;0.98;;;;;;;-146.25;100.00;52323.59;2121178;27;30936;-64
2023/10/05 01:03:33;;;;;;;7.30;0.90;;;;;;;-146.25;100.00;52347.91;2122185;27;30060;-64
2023/10/05 01:04:53;;;;;;;7.60;0.88;;;;;;;-146.25;100.00;52354.00;2113542;28;20942;-64
2023/10/05 01:06:12;;;;;;;7.90;1.20;;;;;;;-146.25;100.00;52380.38;2115399;27;28384;-64
2023/10/05 01:07:57;;;;;;;10.23;1.10;;;;;;;-146.25;100.00;52378.34;2112996;28;20575;-64
2023/10/05 01:08:59;;;;;;;10.10;0.98;;;;;;;-146.25;100.00;52388.47;2106929;28;31235;-63
2023/10/05 01:11:14;;;;;;;8.32;1.15;;;;;;;-146.25;100.00;52372.25;2121092;27;20083;-64
2023/10/05 01:13:34;;;;;;;;;;;;;;;-146.25;100.00;52400.63;2105560;28;20052;-64
2023/10/05 01:14:53;;;;;;;6.90;0.90;;;;;;;-146.25;100.00;52347.91;2105631;28;27900;-64
2023/10/05 01:15:55;;;;;;;4.88;0.93;;;;;;;-146.25;100.00;52398.59;2103789;28;33581;-64
2023/10/05 01:16:59;;;;;;;8.65;1.15;;;;;;;-146.25;100.00;52354.00;2104391;28;20136;-63
2023/10/05 01:18:01;;;;;;;6.05;1.00;;;;;;;-146.25;100.00;52351.97;2112026;28;33654;-64
2023/10/05 01:19:07;;;;;;;6.80;1.13;;;;;;;-146.25;100.00;52396.59;2112768;28;32723;-63
2023/10/05 01:20:22;;;;;;;8.38;1.08;;;;;;;-146.25;100.00;52337.78;2113264;28;27294;-64
2023/10/05 01:21:25;;;;;;;12.20;0.98;;;;;;;-146.25;100.00;52351.97;2104022;28;33507;-64
2023/10/05 01:22:41;;;;;;;7.22;1.10;;;;;;;-146.25;100.00;52374.28;2104821;28;20087;-64
2023/10/05 01:23:48;;;;;;;6.35;1.05;;;;;;;-146.25;100.00;52335.75;2112364;28;20120;-65
2023/10/05 01:24:51;;;;;;;12.00;1.38;;;;;;;-146.25;100.00;52372.25;2110298;28;31375;-64
2023/10/05 01:25:52;;;;;;;4.95;0.80;;;;;;;-146.25;100.00;52351.97;2103595;28;30839;-63
2023/10/05 01:26:54;;;;;;;7.72;1.00;;;;;;;-146.25;100.00;52358.06;2104270;28;30635;-64
2023/10/05 01:27:56;;;;;;;5.07;1.25;;;;;;;-146.25;100.00;52372.25;2113708;27;26364;-63
2023/10/05 01:28:58;;;;;;;5.97;1.13;;;;;;;-146.25;100.00;52356.03;2122554;27;29179;-64
2023/10/05 01:30:00;;;;;;;7.43;1.00;;;;;;;-146.25;100.00;52356.03;2121443;27;31541;-65
2023/10/05 01:31:07;;;;;;;7.03;1.00;;;;;;;-146.25;100.00;52347.91;2112621;28;24405;-64
2023/10/05 01:32:15;;;;;;;8.00;1.20;;;;;;;-146.25;100.00;52345.91;2113626;27;29885;-64
2023/10/05 01:33:17;;;;;;;8.88;1.08;;;;;;;-146.25;100.00;52335.75;2122174;27;27148;-64
2023/10/05 01:34:21;;;;;;;7.45;1.05;;;;;;;-146.25;100.00;52356.03;2121713;27;24859;-64
2023/10/05 01:35:23;;;;;;;7.15;1.10;;;;;;;-146.25;100.00;52331.69;2113021;28;34619;-63
2023/10/05 01:36:25;;;;;;;6.88;1.17;;;;;;;-146.25;100.00;52398.59;2104474;28;20036;-64
2023/10/05 01:37:31;;;;;;;7.22;0.93;;;;;;;-146.25;100.00;52398.59;2112867;27;20415;-63
2023/10/05 01:38:37;;;;;;;9.93;0.80;;;;;;;-146.25;100.00;52343.88;2120725;27;30160;-63
2023/10/05 01:39:44;;;;;;;8.85;1.20;;;;;;;-146.25;100.00;52374.28;2122034;27;20874;-64
2023/10/05 01:40:51;;;;;;;6.95;1.20;;;;;;;-146.25;100.00;52380.38;2121248;27;30030;-64
2023/10/05 01:41:52;;;;;;;8.75;1.13;;;;;;;-146.25;100.00;52370.22;2122057;27;28516;-64
2023/10/05 01:42:54;;;;;;;7.68;1.08;;;;;;;-146.25;100.00;52388.47;2121531;27;31574;-64
2023/10/05 01:43:57;;;;;;;6.88;1.20;;;;;;;-146.25;100.00;52372.25;2121224;27;36836;-64
2023/10/05 01:44:59;;;;;;;9.60;1.00;;;;;;;-146.25;100.00;52341.84;2121399;27;30684;-64
2023/10/05 01:46:08;;;;;;;7.40;0.95;;;;;;;-146.25;100.00;52374.28;2121998;27;20044;-64
2023/10/05 01:47:16;;;;;;;14.52;1.30;;;;;;;-146.25;100.00;52392.53;2120958;27;20038;-64
2023/10/05 01:48:25;;;;;;;8.52;1.00;;;;;;;-146.25;100.00;52386.44;2113151;28;20040;-64
2023/10/05 01:49:27;;;;;;;8.25;1.30;;;;;;;-146.25;100.00;52291.16;2115000;27;20041;-64
2023/10/05 01:50:29;;;;;;;6.85;1.10;;;;;;;-146.25;100.00;52398.59;2121738;27;21878;-64
2023/10/05 01:51:31;;;;;;;9.13;1.02;;;;;;;-146.25;100.00;52356.03;2112657;28;20051;-63
2023/10/05 01:52:35;;;;;;;6.60;1.25;;;;;;;-146.25;100.00;52337.78;2112960;27;29924;-64
2023/10/05 01:53:39;;;;;;;6.65;1.20;;;;;;;-146.25;100.00;52343.88;2120248;27;27015;-64
2023/10/05 01:54:43;;;;;;;11.07;1.33;;;;;;;-146.25;100.00;52394.56;2112032;28;32275;-63
2023/10/05 01:55:45;;;;;;;9.13;1.10;;;;;;;-146.25;100.00;52339.81;2112380;27;33111;-64
2023/10/05 01:56:49;;;;;;;8.65;1.48;;;;;;;-146.25;100.00;52347.91;2112662;28;20134;-64
2023/10/05 01:57:53;;;;;;;6.82;1.30;;;;;;;-146.25;100.00;52368.19;2104677;27;20632;-64
2023/10/05 01:58:56;;;;;;;5.88;0.88;;;;;;;-146.25;100.00;52380.38;2096110;28;20049;-64
2023/10/05 01:59:59;;;;;;;6.25;1.20;;;;;;;-146.25;100.00;52364.13;2104442;27;20051;-64
2023/10/05 02:01:03;;;;;;;7.32;1.17;;;;;;;-146.25;100.00;52378.34;2120025;27;24041;-64
2023/10/05 02:02:10;;;;;;;7.55;1.13;;;;;;;-146.25;100.00;52339.81;2112472;28;20048;-64
2023/10/05 02:03:12;;;;;;;5.88;1.40;;;;;;;-146.25;100.00;52317.50;2103798;28;30436;-64
2023/10/05 02:04:15;;;;;;;7.75;1.00;;;;;;;-146.25;100.00;52327.66;2105414;28;20041;-64
2023/10/05 02:05:19;;;;;;;6.63;1.10;;;;;;;-146.25;100.00;52341.84;2112203;28;27034;-64
2023/10/05 02:06:21;;;;;;;12.93;1.30;;;;;;;-146.25;100.00;52358.06;2112784;28;28863;-64
2023/10/05 02:07:25;;;;;;;11.88;1.58;;;;;;;-146.25;100.00;52380.38;2113111;28;25347;-64
2023/10/05 02:08:27;;;;;;;6.78;1.10;;;;;;;-146.25;100.00;52349.94;2111999;28;20052;-63
2023/10/05 02:09:31;;;;;;;5.60;1.08;;;;;;;-146.25;100.00;52349.94;2104149;28;20088;-64
2023/10/05 02:10:33;;;;;;;6.07;1.27;;;;;;;-146.25;100.00;52362.13;2104215;28;20110;-64
2023/10/05 02:11:37;;;;;;;8.57;1.50;;;;;;;-146.25;100.00;52370.22;2112530;28;20036;-64
2023/10/05 02:12:39;;;;;;;7.55;1.13;;;;;;;-146.25;100.00;52343.88;2104569;28;20044;-64
2023/10/05 02:13:42;;;;;;;9.93;1.52;;;;;;;-146.25;100.00;52339.81;2112656;28;27596;-64
2023/10/05 02:14:44;;;;;;;7.15;1.10;;;;;;;-146.25;100.00;52347.91;2113247;28;23731;-64
2023/10/05 02:15:54;;;;;;;7.70;1.25;;;;;;;-146.25;100.00;52354.00;2112051;28;20086;-64
2023/10/05 02:16:57;;;;;;;9.82;1.13;;;;;;;-146.25;100.00;52372.25;2111304;28;20079;-64
2023/10/05 02:18:12;;;;;;;8.73;1.35;;;;;;;-146.25;100.00;52366.16;2103781;28;28309;-64
2023/10/05 02:19:16;;;;;;;7.88;1.15;;;;;;;-146.25;100.00;52331.69;2113433;28;20818;-64
2023/10/05 02:21:37;;;;;;;9.60;1.20;;;;;;;-146.25;100.00;52380.38;2112811;28;25312;-64
2023/10/05 02:22:41;;;;;;;7.00;1.20;;;;;;;-146.25;100.00;52370.22;2112997;28;32287;-64
2023/10/05 02:23:44;;;;;;;6.03;1.35;;;;;;;-146.25;100.00;52376.31;2112780;28;32387;-64
2023/10/05 02:24:46;;;;;;;8.98;1.60;;;;;;;-146.25;100.00;52382.38;2111973;28;28655;-64
2023/10/05 02:25:54;;;;;;;8.18;1.27;;;;;;;-146.25;100.00;52388.47;2112835;28;20044;-63
2023/10/05 02:28:00;;;;;;;7.85;1.30;;;;;;;-146.25;100.00;52327.66;2105123;27;25083;-64
2023/10/05 02:29:13;;;;;;;4.30;1.42;;;;;;;-146.25;100.00;52400.63;2112259;27;33119;-64
2023/10/05 02:30:16;;;;;;;7.93;1.20;;;;;;;-146.25;100.00;52358.06;2120967;27;20062;-64
2023/10/05 02:31:21;;;;;;;8.60;0.98;;;;;;;-146.25;100.00;52323.59;2111944;28;28623;-64
2023/10/05 02:32:27;;;;;;;10.27;1.55;;;;;;;-146.25;100.00;52382.38;2112629;27;29407;-65
2023/10/05 02:33:32;;;;;;;8.95;1.23;;;;;;;-146.25;100.00;52364.13;2122130;27;20043;-64
2023/10/05 02:34:44;;;;;;;8.38;1.38;;;;;;;-146.25;100.00;52372.25;2121253;27;28673;-64
2023/10/05 02:35:48;;;;;;;5.10;1.00;;;;;;;-146.25;100.00;52333.72;2112219;28;20821;-64
2023/10/05 02:36:54;;;;;;;5.93;1.25;;;;;;;-146.25;100.00;52337.78;2105629;28;21784;-64
2023/10/05 02:38:04;;;;;;;11.02;1.45;;;;;;;-146.25;100.00;52341.84;2114399;27;20047;-64
2023/10/05 02:39:08;;;;;;;8.02;1.23;;;;;;;-146.25;100.00;52362.13;2103416;28;20045;-64
2023/10/05 02:40:12;;;;;;;5.63;1.20;;;;;;;-146.25;100.00;52309.41;2105208;27;28198;-63
2023/10/05 02:41:16;;;;;;;9.43;1.27;;;;;;;-146.25;100.00;52408.75;2112487;28;20696;-63
2023/10/05 02:42:21;;;;;;;7.93;1.60;;;;;;;-146.25;100.00;52325.63;2104315;28;20095;-64
2023/10/05 02:43:27;;;;;;;7.75;1.40;;;;;;;-146.25;100.00;52343.88;2105640;27;20462;-63
2023/10/05 02:44:30;;;;;;;6.45;1.33;;;;;;;-146.25;100.00;52317.50;2121060;27;20036;-64
2023/10/05 02:45:32;;;;;;;4.22;0.98;;;;;;;-146.25;100.00;52356.03;2120336;27;25966;-64
2023/10/05 02:46:34;;;;;;;7.72;1.23;;;;;;;-146.25;100.00;52315.47;2121580;27;26575;-64
2023/10/05 02:47:36;;;;;;;9.15;1.48;;;;;;;-146.25;100.00;52349.94;2121655;27;20108;-66
2023/10/05 02:48:43;;;;;;;7.35;1.17;;;;;;;-146.25;100.00;52341.84;2103355;28;27731;-64
2023/10/05 02:49:47;;;;;;;5.28;1.25;;;;;;;-146.25;100.00;52372.25;2105649;27;20051;-64
2023/10/05 02:50:51;;;;;;;14.45;1.52;;;;;;;-146.25;100.00;52327.66;2121866;27;20086;-64
2023/10/05 02:51:54;;;;;;;9.10;1.23;;;;;;;-146.25;100.00;52356.03;2120632;27;25766;-65
2023/10/05 02:52:59;;;;;;;8.77;1.35;;;;;;;-146.25;100.00;52337.78;2103650;28;25262;-64
2023/10/05 02:54:07;;;;;;;10.52;1.45;;;;;;;-146.25;100.00;52372.25;2104960;27;20107;-63
2023/10/05 02:55:09;;;;;;;11.65;1.35;;;;;;;-146.25;100.00;52368.19;2121781;27;20050;-64
2023/10/05 02:56:26;;;;;;;8.13;1.70;;;;;;;-146.25;100.00;52351.97;2121211;27;26291;-64
2023/10/05 02:57:28;;;;;;;7.22;1.27;;;;;;;-146.25;100.00;52327.66;2121683;27;28203;-64
2023/10/05 02:58:30;;;;;;;8.63;1.17;;;;;;;-146.25;100.00;52364.13;2120590;27;21714;-64
2023/10/05 02:59:33;;;;;;;7.95;1.20;;;;;;;-146.25;100.00;52331.69;2119906;27;30631;-63
2023/10/05 03:00:38;;;;;;;10.05;1.58;;;;;;;-146.25;100.00;52351.97;2112103;28;22748;-64
2023/10/05 03:01:39;;;;;;;12.55;1.40;;;;;;;-146.25;100.00;52309.41;2113285;27;20440;-64
2023/10/05 03:02:47;;;;;;;8.88;1.40;;;;;;;-146.25;100.00;52356.03;2121093;27;29309;-64
2023/10/05 03:03:57;;;;;;;7.82;1.23;;;;;;;-146.25;100.00;52360.09;2112241;28;20040;-64
2023/10/05 03:05:05;;;;;;;7.95;1.45;;;;;;;-146.25;100.00;52358.06;2113922;27;20178;-64
2023/10/05 03:06:10;;;;;;;9.55;1.75;;;;;;;-146.25;100.00;52356.03;2112018;28;20048;-62
2023/10/05 03:07:17;;;;;;;6.95;1.70;;;;;;;-146.25;100.00;52374.28;2104314;28;26482;-64
2023/10/05 03:08:22;;;;;;;8.40;1.40;;;;;;;-146.25;100.00;52382.38;2103957;28;20075;-64
2023/10/05 03:09:24;;;;;;;6.90;1.20;;;;;;;-146.25;100.00;52382.38;2105347;27;20082;-64
2023/10/05 03:10:27;;;;;;;9.65;1.60;;;;;;;-146.25;100.00;52347.91;2112090;28;20109;-64
2023/10/05 03:11:41;;;;;;;8.38;1.52;;;;;;;-146.25;100.00;52378.34;2112598;27;20140;-64
2023/10/05 03:12:45;;;;;;;10.10;1.17;;;;;;;-146.25;100.00;52366.16;2112320;28;20036;-64
2023/10/05 03:13:50;;;;;;;7.05;1.20;;;;;;;-146.25;100.00;52347.91;2112492;27;20052;-62
2023/10/05 03:14:54;;;;;;;8.48;1.45;;;;;;;-146.25;100.00;52307.38;2111886;28;20136;-64
2023/10/05 03:15:58;;;;;;;8.30;1.42;;;;;;;-146.25;100.00;52356.03;2104162;28;20087;-64
2023/10/05 03:17:10;;;;;;;11.85;1.55;;;;;;;-146.25;100.00;52323.59;2104984;28;20079;-64
2023/10/05 03:18:15;;;;;;;9.30;1.88;;;;;;;-146.25;100.00;52374.28;2114407;27;20040;-64
2023/10/05 03:19:21;;;;;;;8.68;1.85;;;;;;;-146.25;100.00;52370.22;2113262;28;20821;-63
2023/10/05 03:20:24;;;;;;;10.60;1.60;;;;;;;-146.25;100.00;52329.66;2105323;28;21004;-64
2023/10/05 03:21:26;;;;;;;5.95;1.30;;;;;;;-146.25;100.00;52380.38;2105183;27;28588;-64
2023/10/05 03:22:34;;;;;;;5.70;1.38;;;;;;;-146.25;100.00;52372.25;2113710;28;21022;-64
2023/10/05 03:23:37;;;;;;;8.32;1.80;;;;;;;-146.25;100.00;52364.13;2114596;27;20036;-64
2023/10/05 03:24:44;;;;;;;10.82;1.67;;;;;;;-146.25;100.00;52347.91;2114265;28;20974;-64
2023/10/05 03:25:52;;;;;;;5.63;1.38;;;;;;;-146.25;100.00;52374.28;2113491;27;20122;-64
2023/10/05 03:26:55;;;;;;;10.13;1.80;;;;;;;-146.25;100.00;52376.31;2097871;28;20141;-63
2023/10/05 03:27:57;;;;;;;7.57;1.50;;;;;;;-146.25;100.00;52339.81;2097860;28;20977;-64
2023/10/05 03:29:03;;;;;;;8.25;1.20;;;;;;;-146.25;100.00;52368.19;2105402;28;20144;-64
2023/10/05 03:30:06;;;;;;;8.93;1.27;;;;;;;-146.25;100.00;52372.25;2105481;28;21435;-64
2023/10/05 03:31:31;;;;;;;10.73;1.42;;;;;;;-146.25;100.00;52347.91;2113721;27;20048;-62
2023/10/05 03:32:35;;;;;;;9.57;1.48;;;;;;;-146.25;100.00;52339.81;2113747;28;20821;-63
2023/10/05 03:33:38;;;;;;;10.10;1.55;;;;;;;-146.25;100.00;52356.03;2112770;28;20118;-64
2023/10/05 03:34:46;;;;;;;7.57;1.38;;;;;;;-146.25;100.00;52351.97;2104485;28;20032;-64
2023/10/05 03:35:48;;;;;;;8.75;1.58;;;;;;;-146.25;100.00;52341.84;2113778;27;20052;-63
2023/10/05 03:36:50;;;;;;;10.95;1.60;;;;;;;-146.25;100.00;52360.09;2121363;27;20028;-64
2023/10/05 03:37:55;;;;;;;4.85;1.90;;;;;;;-146.25;100.00;52335.75;2121823;27;20046;-63
2023/10/05 03:38:57;;;;;;;11.13;1.77;;;;;;;-146.25;100.00;52380.38;2120709;27;20229;-63
2023/10/05 03:41:08;;;;;;;9.88;1.65;;;;;;;-146.25;100.00;52351.97;2113183;27;20043;-63
2023/10/05 03:42:13;;;;;;;8.43;1.50;;;;;;;-146.25;100.00;52345.91;2112674;28;20033;-63
2023/10/05 03:43:15;;;;;;;7.65;1.48;;;;;;;-146.25;100.00;52351.97;2112750;27;29127;-63
2023/10/05 03:44:17;;;;;;;5.60;1.33;;;;;;;-146.25;100.00;52370.22;2120891;27;26744;-63
2023/10/05 03:45:22;;;;;;;9.32;1.67;;;;;;;-146.25;100.00;52356.03;2121294;27;20048;-62
2023/10/05 03:46:25;;;;;;;9.73;1.48;;;;;;;-146.25;100.00;52374.28;2120984;27;20056;-63
2023/10/05 03:47:27;;;;;;;7.72;1.50;;;;;;;-146.25;100.00;52351.97;2113213;27;20036;-63
2023/10/05 03:48:29;;;;;;;7.22;1.65;;;;;;;-146.25;100.00;52347.91;2121311;27;20116;-62
2023/10/05 03:49:31;;;;;;;9.13;1.73;;;;;;;-146.25;100.00;52335.75;2112510;28;20166;-63
2023/10/05 03:50:34;;;;;;;6.50;1.42;;;;;;;-146.25;100.00;52351.97;2104372;28;20036;-63
2023/10/05 03:51:37;;;;;;;8.48;1.30;;;;;;;-146.25;100.00;52368.19;2101527;28;27324;-63
2023/10/05 03:52:44;;;;;;;9.55;1.70;;;;;;;-146.25;100.00;52374.28;2105106;27;20050;-64
2023/10/05 03:53:51;;;;;;;9.15;1.50;;;;;;;-146.25;100.00;52364.13;2112677;27;20044;-63
2023/10/05 03:54:53;;;;;;;7.00;1.60;;;;;;;-146.25;100.00;52372.25;2121988;27;20102;-63
2023/10/05 03:55:56;;;;;;;9.30;1.58;;;;;;;-146.25;100.00;52343.88;2113383;28;20917;-63
2023/10/05 03:57:10;;;;;;;9.48;1.55;;;;;;;-146.25;100.00;52335.75;2115483;27;23406;-63
2023/10/05 03:58:16;;;;;;;7.25;1.23;;;;;;;-146.25;100.00;52368.19;2127232;27;20047;-62
2023/10/05 03:59:17;;;;;;;8.77;1.42;;;;;;;-146.25;100.00;52347.91;2121330;27;25347;-63
2023/10/05 04:00:23;;;;;;;9.18;1.30;;;;;;;-146.25;100.00;52364.13;2122189;27;20044;-64
2023/10/05 04:01:26;;;;;;;6.72;1.25;;;;;;;-146.25;100.00;52362.13;2113477;28;20140;-63
2023/10/05 04:02:28;;;;;;;9.00;1.33;;;;;;;-146.25;100.00;52386.44;2112829;27;27512;-64
2023/10/05 04:03:30;;;;;;;6.63;1.42;;;;;;;-146.25;100.00;52343.88;2122240;27;31265;-63
2023/10/05 04:04:37;;;;;;;9.85;1.30;;;;;;;-146.25;100.00;52376.31;2117585;27;29132;-63
2023/10/05 04:05:40;;;;;;;10.48;1.30;;;;;;;-146.25;100.00;52368.19;2113097;28;35033;-63
2023/10/05 04:06:44;;;;;;;8.60;2.00;;;;;;;-146.25;100.00;52341.84;2113176;28;20109;-64
2023/10/05 04:07:54;;;;;;;9.27;1.73;;;;;;;-146.25;100.00;52327.66;2104592;28;27713;-62
2023/10/05 04:08:59;;;;;;;11.73;1.40;;;;;;;-146.25;100.00;52360.09;2106371;28;20806;-62
2023/10/05 04:10:03;;;;;;;9.63;1.75;;;;;;;-146.25;100.00;52362.13;2113292;28;37187;-63
2023/10/05 04:11:05;;;;;;;11.35;1.92;;;;;;;-146.25;100.00;52329.66;2113990;28;30537;-62
2023/10/05 04:12:10;;;;;;;9.35;1.17;;;;;;;-146.25;100.00;52372.25;2113313;28;33510;-63
2023/10/05 04:13:14;;;;;;;8.57;1.80;;;;;;;-146.25;100.00;52368.19;2113069;28;38059;-62
2023/10/05 04:14:16;;;;;;;7.47;1.27;;;;;;;-146.25;100.00;52325.63;2113330;28;31902;-62
2023/10/05 04:15:20;;;;;;;8.20;1.60;;;;;;;-146.25;100.00;52364.13;2113507;28;34089;-62
2023/10/05 04:16:28;;;;;;;10.63;1.45;;;;;;;-146.25;100.00;52329.66;2113091;28;37890;-63
2023/10/05 04:17:30;;;;;;;9.85;1.90;;;;;;;-146.25;100.00;52327.66;2113351;28;20067;-62
2023/10/05 04:18:32;;;;;;;6.13;1.60;;;;;;;-146.25;100.00;52384.41;2112263;28;38381;-63
2023/10/05 04:19:38;;;;;;;12.18;1.65;;;;;;;-146.25;100.00;52335.75;2112770;28;31522;-63
2023/10/05 04:20:43;;;;;;;11.82;1.65;;;;;;;-146.25;100.00;52329.66;2113316;28;32753;-63
2023/10/05 04:21:45;;;;;;;11.68;1.85;;;;;;;-146.25;100.00;52360.09;2113318;28;37961;-65
2023/10/05 04:22:50;;;;;;;8.60;1.70;;;;;;;-146.25;100.00;52358.06;2113675;28;20032;-62
2023/10/05 04:23:58;;;;;;;8.80;1.70;;;;;;;-146.25;100.00;52345.91;2112928;28;35880;-62
2023/10/05 04:25:00;;;;;;;8.15;1.38;;;;;;;-146.25;100.00;52380.38;2104657;28;28970;-62
2023/10/05 04:26:08;;;;;;;9.70;1.45;;;;;;;-146.25;100.00;52364.13;2105921;28;20056;-63
2023/10/05 04:27:10;;;;;;;9.50;1.92;;;;;;;-146.25;100.00;52354.00;2113632;28;37257;-64
2023/10/05 04:28:15;;;;;;;9.52;1.70;;;;;;;-146.25;100.00;52364.13;2116180;27;35553;-63
2023/10/05 04:29:20;;;;;;;9.40;1.52;;;;;;;-146.25;100.00;52351.97;2121464;27;38316;-62
2023/10/05 04:30:23;;;;;;;7.78;1.40;;;;;;;-146.25;100.00;52317.50;2121831;27;36360;-64
2023/10/05 04:31:25;;;;;;;10.05;1.73;;;;;;;-146.25;100.00;52327.66;2122021;27;31568;-63
2023/10/05 04:32:28;;;;;;;7.68;1.10;;;;;;;-146.25;100.00;52331.69;2121644;27;31894;-64
2023/10/05 04:33:31;;;;;;;8.82;1.40;;;;;;;-146.25;100.00;52388.47;2122261;27;29461;-63
2023/10/05 04:34:33;;;;;;;9.13;1.80;;;;;;;-146.25;100.00;52356.03;2121923;27;20032;-63
2023/10/05 04:35:42;;;;;;;6.22;1.40;;;;;;;-146.25;100.00;52341.84;2121195;27;34898;-64
2023/10/05 04:36:48;;;;;;;8.55;1.58;;;;;;;-146.25;100.00;52360.09;2121367;27;33630;-63
2023/10/05 04:37:50;;;;;;;6.80;1.60;;;;;;;-146.25;100.00;52333.72;2121118;27;35394;-64
2023/10/05 04:38:54;;;;;;;7.80;1.52;;;;;;;-146.25;100.00;52351.97;2120569;27;35609;-63
2023/10/05 04:39:59;;;;;;;9.35;1.67;;;;;;;-146.25;100.00;52366.16;2120627;27;34439;-64
2023/10/05 04:41:01;;;;;;;9.68;1.52;;;;;;;-146.25;100.00;52364.13;2120949;27;38084;-63
2023/10/05 04:42:11;;;;;;;9.20;1.73;;;;;;;-146.25;100.00;52380.38;2120555;27;37704;-64
2023/10/05 04:43:16;;;;;;;10.38;1.70;;;;;;;-146.25;100.00;52378.34;2120831;27;35031;-64
2023/10/05 04:44:18;;;;;;;11.27;1.50;;;;;;;-146.25;100.00;52356.03;2120735;27;35663;-64
2023/10/05 04:45:23;;;;;;;12.20;1.50;;;;;;;-146.25;100.00;52384.41;2121064;27;35029;-65
2023/10/05 04:46:25;;;;;;;9.88;1.77;;;;;;;-146.25;100.00;52356.03;2120822;27;38894;-64
2023/10/05 04:47:28;;;;;;;6.70;1.80;;;;;;;-146.25;100.00;52343.88;2120595;27;36639;-64
2023/10/05 04:48:32;;;;;;;11.05;1.50;;;;;;;-146.25;100.00;52360.09;2120819;27;35358;-64
2023/10/05 04:49:36;;;;;;;6.43;1.60;;;;;;;-146.25;100.00;52362.13;2120991;27;34562;-64
2023/10/05 04:50:41;;;;;;;10.98;2.08;;;;;;;-146.25;100.00;52362.13;2121219;27;35186;-64
2023/10/05 04:51:44;;;;;;;14.82;1.70;;;;;;;-146.25;100.00;52337.78;2121854;27;33269;-65
2023/10/05 04:52:50;;;;;;;9.93;2.08;;;;;;;-146.25;100.00;52356.03;2121559;27;37377;-64
2023/10/05 04:53:54;;;;;;;11.60;2.10;;;;;;;-146.25;100.00;52354.00;2115354;27;20125;-64
2023/10/05 04:54:58;;;;;;;9.70;1.40;;;;;;;-146.25;100.00;52347.91;2113061;28;33192;-63
2023/10/05 04:56:10;;;;;;;9.75;1.60;;;;;;;-146.25;100.00;52400.63;2113527;28;31497;-63
2023/10/05 04:57:34;;;;;;;8.15;1.52;;;;;;;-146.25;100.00;52368.19;2112152;28;36315;-63
2023/10/05 04:58:53;;;;;;;10.13;1.58;;;;;;;-146.25;100.00;52360.09;2118290;27;36462;-66
2023/10/05 05:00:48;;;;;;;8.18;1.38;;;;;;;-146.25;100.00;52358.06;2116139;27;20051;-64
2023/10/05 05:01:28;;;;;;;7.53;1.33;;;;;;;-146.25;100.00;52376.31;2121429;27;29098;-64
2023/10/05 05:04:27;;;;;;;14.05;2.15;;;;;;;-146.25;100.00;52380.38;2104692;27;42033;-63
2023/10/05 05:05:40;;;;;;;;;;;;;;;-146.25;100.00;52351.97;2122931;27;20043;-62